sensor_id;sensor_type;location;lat;lon;timestamp;P1;durP1;ratioP1;P2;durP2;ratioP2
61460;SDS011;47325;50.506;4.472;2022-09-09T00:01:03;2.50;;;1.00;;
61460;SDS011;47325;50.506;4.472;2022-09-09T00:06:50;2.50;;;0.90;;
61460;SDS011;47325;50.506;4.472;2022-09-09T00:12:41;1.90;;;0.80;;
61460;SDS011;47325;50.506;4.472;2022-09-09T00:18:27;2.00;;;0.80;;
61460;SDS011;47325;50.506;4.472;2022-09-09T00:24:24;1.90;;;0.90;;
61460;SDS011;47325;50.506;4.472;2022-09-09T00:30:02;2.70;;;0.90;;
61460;SDS011;47325;50.506;4.472;2022-09-09T00:35:47;2.20;;;0.80;;
61460;SDS011;47325;50.506;4.472;2022-09-09T00:41:34;2.20;;;0.90;;
61460;SDS011;47325;50.506;4.472;2022-09-09T00:47:24;2.00;;;0.70;;
61460;SDS011;47325;50.506;4.472;2022-09-09T00:53:15;3.00;;;0.80;;
61460;SDS011;47325;50.506;4.472;2022-09-09T00:59:04;2.50;;;0.80;;
61460;SDS011;47325;50.506;4.472;2022-09-09T01:04:49;3.80;;;0.90;;
61460;SDS011;47325;50.506;4.472;2022-09-09T01:10:35;2.30;;;0.70;;
61460;SDS011;47325;50.506;4.472;2022-09-09T01:16:19;2.20;;;0.70;;
61460;SDS011;47325;50.506;4.472;2022-09-09T01:22:03;2.00;;;0.80;;
61460;SDS011;47325;50.506;4.472;2022-09-09T01:27:53;2.80;;;0.70;;
61460;SDS011;47325;50.506;4.472;2022-09-09T01:33:38;1.70;;;0.80;;
61460;SDS011;47325;50.506;4.472;2022-09-09T01:39:21;2.20;;;0.80;;
61460;SDS011;47325;50.506;4.472;2022-09-09T01:45:05;1.80;;;0.70;;
61460;SDS011;47325;50.506;4.472;2022-09-09T01:50:48;2.90;;;1.00;;
61460;SDS011;47325;50.506;4.472;2022-09-09T01:56:35;2.80;;;0.80;;
61460;SDS011;47325;50.506;4.472;2022-09-09T02:02:22;2.00;;;0.80;;
61460;SDS011;47325;50.506;4.472;2022-09-09T02:08:10;2.10;;;0.80;;
61460;SDS011;47325;50.506;4.472;2022-09-09T02:13:54;2.70;;;1.00;;
61460;SDS011;47325;50.506;4.472;2022-09-09T02:19:42;2.70;;;0.90;;
61460;SDS011;47325;50.506;4.472;2022-09-09T02:25:29;2.50;;;0.90;;
61460;SDS011;47325;50.506;4.472;2022-09-09T02:31:12;3.30;;;0.80;;
61460;SDS011;47325;50.506;4.472;2022-09-09T02:36:56;3.40;;;0.90;;
61460;SDS011;47325;50.506;4.472;2022-09-09T02:42:42;2.80;;;0.90;;
61460;SDS011;47325;50.506;4.472;2022-09-09T02:48:28;2.50;;;0.70;;
61460;SDS011;47325;50.506;4.472;2022-09-09T02:54:16;3.40;;;0.90;;
61460;SDS011;47325;50.506;4.472;2022-09-09T03:00:00;3.30;;;0.80;;
61460;SDS011;47325;50.506;4.472;2022-09-09T03:05:43;3.50;;;1.00;;
61460;SDS011;47325;50.506;4.472;2022-09-09T03:11:27;2.40;;;1.00;;
61460;SDS011;47325;50.506;4.472;2022-09-09T03:17:10;3.20;;;0.90;;
61460;SDS011;47325;50.506;4.472;2022-09-09T03:22:53;3.00;;;1.00;;
61460;SDS011;47325;50.506;4.472;2022-09-09T03:28:37;3.30;;;0.90;;
61460;SDS011;47325;50.506;4.472;2022-09-09T03:34:20;3.20;;;1.00;;
61460;SDS011;47325;50.506;4.472;2022-09-09T03:40:04;3.90;;;1.00;;
61460;SDS011;47325;50.506;4.472;2022-09-09T03:45:49;2.00;;;0.90;;
61460;SDS011;47325;50.506;4.472;2022-09-09T03:51:32;3.20;;;1.10;;
61460;SDS011;47325;50.506;4.472;2022-09-09T03:57:16;2.20;;;0.90;;
61460;SDS011;47325;50.506;4.472;2022-09-09T04:02:59;3.40;;;0.90;;
61460;SDS011;47325;50.506;4.472;2022-09-09T04:08:42;3.70;;;1.00;;
61460;SDS011;47325;50.506;4.472;2022-09-09T04:14:26;4.70;;;1.00;;
61460;SDS011;47325;50.506;4.472;2022-09-09T04:20:09;3.50;;;1.00;;
61460;SDS011;47325;50.506;4.472;2022-09-09T04:25:53;4.30;;;1.10;;
61460;SDS011;47325;50.506;4.472;2022-09-09T04:31:36;4.90;;;1.10;;
61460;SDS011;47325;50.506;4.472;2022-09-09T04:37:20;3.50;;;0.90;;
61460;SDS011;47325;50.506;4.472;2022-09-09T04:43:04;3.70;;;1.10;;
61460;SDS011;47325;50.506;4.472;2022-09-09T04:48:52;3.50;;;1.00;;
61460;SDS011;47325;50.506;4.472;2022-09-09T04:54:35;4.00;;;1.20;;
61460;SDS011;47325;50.506;4.472;2022-09-09T05:00:19;4.40;;;1.20;;
61460;SDS011;47325;50.506;4.472;2022-09-09T05:06:06;4.00;;;1.20;;
61460;SDS011;47325;50.506;4.472;2022-09-09T05:11:50;4.60;;;1.10;;
61460;SDS011;47325;50.506;4.472;2022-09-09T05:17:33;3.70;;;1.20;;
61460;SDS011;47325;50.506;4.472;2022-09-09T05:23:16;5.00;;;1.30;;
61460;SDS011;47325;50.506;4.472;2022-09-09T05:28:59;6.10;;;1.40;;
61460;SDS011;47325;50.506;4.472;2022-09-09T05:34:43;4.20;;;1.30;;
61460;SDS011;47325;50.506;4.472;2022-09-09T05:40:26;6.10;;;1.20;;
61460;SDS011;47325;50.506;4.472;2022-09-09T05:46:10;4.20;;;1.10;;
61460;SDS011;47325;50.506;4.472;2022-09-09T05:51:53;6.10;;;1.30;;
61460;SDS011;47325;50.506;4.472;2022-09-09T05:57:37;5.10;;;1.40;;
61460;SDS011;47325;50.506;4.472;2022-09-09T06:03:20;8.00;;;1.40;;
61460;SDS011;47325;50.506;4.472;2022-09-09T06:09:05;3.90;;;1.10;;
61460;SDS011;47325;50.506;4.472;2022-09-09T06:14:49;7.40;;;1.50;;
61460;SDS011;47325;50.506;4.472;2022-09-09T06:20:32;5.10;;;1.40;;
61460;SDS011;47325;50.506;4.472;2022-09-09T06:26:16;6.80;;;1.50;;
61460;SDS011;47325;50.506;4.472;2022-09-09T06:31:59;7.00;;;1.30;;
61460;SDS011;47325;50.506;4.472;2022-09-09T06:37:44;8.70;;;1.30;;
61460;SDS011;47325;50.506;4.472;2022-09-09T06:43:27;6.90;;;1.70;;
61460;SDS011;47325;50.506;4.472;2022-09-09T06:49:12;8.20;;;1.40;;
61460;SDS011;47325;50.506;4.472;2022-09-09T06:54:55;4.00;;;1.40;;
61460;SDS011;47325;50.506;4.472;2022-09-09T07:00:39;5.70;;;1.60;;
61460;SDS011;47325;50.506;4.472;2022-09-09T07:06:23;5.80;;;1.30;;
61460;SDS011;47325;50.506;4.472;2022-09-09T07:12:06;6.10;;;1.40;;
61460;SDS011;47325;50.506;4.472;2022-09-09T07:17:50;4.10;;;1.30;;
61460;SDS011;47325;50.506;4.472;2022-09-09T07:23:34;7.60;;;1.20;;
61460;SDS011;47325;50.506;4.472;2022-09-09T07:29:18;5.30;;;1.20;;
61460;SDS011;47325;50.506;4.472;2022-09-09T07:35:03;5.50;;;1.30;;
61460;SDS011;47325;50.506;4.472;2022-09-09T07:40:49;10.30;;;1.80;;
61460;SDS011;47325;50.506;4.472;2022-09-09T07:46:32;7.70;;;1.60;;
61460;SDS011;47325;50.506;4.472;2022-09-09T07:52:16;5.20;;;1.20;;
61460;SDS011;47325;50.506;4.472;2022-09-09T07:58:03;8.20;;;1.80;;
61460;SDS011;47325;50.506;4.472;2022-09-09T08:03:46;4.20;;;1.20;;
61460;SDS011;47325;50.506;4.472;2022-09-09T08:09:37;4.40;;;1.10;;
61460;SDS011;47325;50.506;4.472;2022-09-09T08:15:20;5.50;;;1.40;;
61460;SDS011;47325;50.506;4.472;2022-09-09T08:21:09;11.20;;;1.50;;
61460;SDS011;47325;50.506;4.472;2022-09-09T08:26:52;8.90;;;1.50;;
61460;SDS011;47325;50.506;4.472;2022-09-09T08:32:36;9.40;;;1.50;;
61460;SDS011;47325;50.506;4.472;2022-09-09T08:38:31;7.50;;;1.30;;
61460;SDS011;47325;50.506;4.472;2022-09-09T08:44:17;8.30;;;1.60;;
61460;SDS011;47325;50.506;4.472;2022-09-09T08:56:01;8.50;;;1.50;;
61460;SDS011;47325;50.506;4.472;2022-09-09T09:01:48;7.00;;;1.40;;
61460;SDS011;47325;50.506;4.472;2022-09-09T09:07:38;8.00;;;1.50;;
61460;SDS011;47325;50.506;4.472;2022-09-09T09:13:23;9.80;;;1.70;;
61460;SDS011;47325;50.506;4.472;2022-09-09T09:19:11;6.50;;;1.50;;
61460;SDS011;47325;50.506;4.472;2022-09-09T09:24:56;7.40;;;1.80;;
61460;SDS011;47325;50.506;4.472;2022-09-09T09:30:43;5.90;;;1.50;;
61460;SDS011;47325;50.506;4.472;2022-09-09T09:36:33;4.80;;;1.30;;
61460;SDS011;47325;50.506;4.472;2022-09-09T09:42:16;5.70;;;1.60;;
61460;SDS011;47325;50.506;4.472;2022-09-09T09:48:08;7.60;;;1.70;;
61460;SDS011;47325;50.506;4.472;2022-09-09T09:53:56;4.60;;;1.40;;
61460;SDS011;47325;50.506;4.472;2022-09-09T09:59:44;5.60;;;1.50;;
61460;SDS011;47325;50.506;4.472;2022-09-09T10:05:30;6.30;;;1.50;;
61460;SDS011;47325;50.506;4.472;2022-09-09T10:11:28;3.70;;;1.20;;
61460;SDS011;47325;50.506;4.472;2022-09-09T10:17:16;6.80;;;1.40;;
61460;SDS011;47325;50.506;4.472;2022-09-09T10:23:05;7.30;;;1.30;;
61460;SDS011;47325;50.506;4.472;2022-09-09T10:28:58;5.40;;;1.30;;
61460;SDS011;47325;50.506;4.472;2022-09-09T10:34:52;6.20;;;1.40;;
61460;SDS011;47325;50.506;4.472;2022-09-09T10:40:37;3.60;;;1.20;;
61460;SDS011;47325;50.506;4.472;2022-09-09T10:46:23;4.70;;;1.20;;
61460;SDS011;47325;50.506;4.472;2022-09-09T10:52:12;5.50;;;1.30;;
61460;SDS011;47325;50.506;4.472;2022-09-09T10:57:58;3.90;;;1.30;;
61460;SDS011;47325;50.506;4.472;2022-09-09T11:03:41;4.30;;;1.50;;
61460;SDS011;47325;50.506;4.472;2022-09-09T11:09:27;5.20;;;1.40;;
61460;SDS011;47325;50.506;4.472;2022-09-09T11:15:14;5.50;;;1.10;;
61460;SDS011;47325;50.506;4.472;2022-09-09T11:21:00;4.10;;;1.20;;
61460;SDS011;47325;50.506;4.472;2022-09-09T11:26:45;4.90;;;1.30;;
61460;SDS011;47325;50.506;4.472;2022-09-09T11:32:44;4.80;;;1.30;;
61460;SDS011;47325;50.506;4.472;2022-09-09T11:38:31;3.90;;;1.10;;
61460;SDS011;47325;50.506;4.472;2022-09-09T11:44:23;4.80;;;1.00;;
61460;SDS011;47325;50.506;4.472;2022-09-09T12:02:03;4.10;;;1.00;;
61460;SDS011;47325;50.506;4.472;2022-09-09T12:07:54;3.30;;;1.00;;
61460;SDS011;47325;50.506;4.472;2022-09-09T12:13:39;3.60;;;1.10;;
61460;SDS011;47325;50.506;4.472;2022-09-09T12:19:22;3.20;;;1.00;;
61460;SDS011;47325;50.506;4.472;2022-09-09T12:25:14;3.90;;;1.10;;
61460;SDS011;47325;50.506;4.472;2022-09-09T12:31:05;3.40;;;1.10;;
61460;SDS011;47325;50.506;4.472;2022-09-09T12:36:51;2.30;;;0.90;;
61460;SDS011;47325;50.506;4.472;2022-09-09T12:42:39;3.60;;;0.90;;
61460;SDS011;47325;50.506;4.472;2022-09-09T12:48:24;3.20;;;0.80;;
61460;SDS011;47325;50.506;4.472;2022-09-09T12:54:12;2.80;;;1.00;;
61460;SDS011;47325;50.506;4.472;2022-09-09T13:00:03;3.30;;;1.00;;
61460;SDS011;47325;50.506;4.472;2022-09-09T13:05:45;2.40;;;0.90;;
61460;SDS011;47325;50.506;4.472;2022-09-09T13:11:29;2.10;;;0.80;;
61460;SDS011;47325;50.506;4.472;2022-09-09T13:17:19;3.40;;;0.90;;
61460;SDS011;47325;50.506;4.472;2022-09-09T13:23:03;3.40;;;0.80;;
61460;SDS011;47325;50.506;4.472;2022-09-09T13:28:46;3.90;;;1.00;;
61460;SDS011;47325;50.506;4.472;2022-09-09T13:34:30;2.40;;;0.90;;
61460;SDS011;47325;50.506;4.472;2022-09-09T13:40:16;2.80;;;0.80;;
61460;SDS011;47325;50.506;4.472;2022-09-09T13:46:02;2.30;;;0.70;;
61460;SDS011;47325;50.506;4.472;2022-09-09T13:51:46;2.40;;;0.80;;
61460;SDS011;47325;50.506;4.472;2022-09-09T13:57:30;1.90;;;0.80;;
61460;SDS011;47325;50.506;4.472;2022-09-09T14:03:13;1.80;;;0.80;;
61460;SDS011;47325;50.506;4.472;2022-09-09T14:08:56;2.20;;;0.70;;
61460;SDS011;47325;50.506;4.472;2022-09-09T14:14:40;2.00;;;0.70;;
61460;SDS011;47325;50.506;4.472;2022-09-09T14:20:23;2.80;;;0.90;;
61460;SDS011;47325;50.506;4.472;2022-09-09T14:26:05;2.30;;;0.80;;
61460;SDS011;47325;50.506;4.472;2022-09-09T14:31:49;0.90;;;0.60;;
61460;SDS011;47325;50.506;4.472;2022-09-09T14:37:32;2.40;;;0.80;;
61460;SDS011;47325;50.506;4.472;2022-09-09T14:43:15;1.90;;;0.70;;
61460;SDS011;47325;50.506;4.472;2022-09-09T14:49:00;2.30;;;0.90;;
61460;SDS011;47325;50.506;4.472;2022-09-09T14:54:44;2.40;;;0.90;;
61460;SDS011;47325;50.506;4.472;2022-09-09T15:00:27;2.30;;;0.90;;
61460;SDS011;47325;50.506;4.472;2022-09-09T15:06:11;2.00;;;0.80;;
61460;SDS011;47325;50.506;4.472;2022-09-09T15:11:55;2.30;;;0.80;;
61460;SDS011;47325;50.506;4.472;2022-09-09T15:17:40;2.20;;;0.80;;
61460;SDS011;47325;50.506;4.472;2022-09-09T15:23:23;2.00;;;0.60;;
61460;SDS011;47325;50.506;4.472;2022-09-09T15:29:06;2.70;;;0.70;;
61460;SDS011;47325;50.506;4.472;2022-09-09T15:34:50;6.20;;;1.70;;
61460;SDS011;47325;50.506;4.472;2022-09-09T15:40:33;8.10;;;2.20;;
61460;SDS011;47325;50.506;4.472;2022-09-09T15:46:27;4.70;;;1.40;;
61460;SDS011;47325;50.506;4.472;2022-09-09T15:52:12;6.30;;;1.40;;
61460;SDS011;47325;50.506;4.472;2022-09-09T15:57:56;7.80;;;1.80;;
61460;SDS011;47325;50.506;4.472;2022-09-09T16:03:43;14.40;;;4.60;;
61460;SDS011;47325;50.506;4.472;2022-09-09T16:09:31;10.40;;;3.60;;
61460;SDS011;47325;50.506;4.472;2022-09-09T16:15:14;7.10;;;2.60;;
61460;SDS011;47325;50.506;4.472;2022-09-09T16:20:57;4.90;;;1.90;;
61460;SDS011;47325;50.506;4.472;2022-09-09T16:26:42;3.90;;;1.40;;
61460;SDS011;47325;50.506;4.472;2022-09-09T16:32:26;3.70;;;1.40;;
61460;SDS011;47325;50.506;4.472;2022-09-09T16:38:09;3.60;;;1.30;;
61460;SDS011;47325;50.506;4.472;2022-09-09T16:43:55;3.60;;;1.20;;
61460;SDS011;47325;50.506;4.472;2022-09-09T16:49:39;4.10;;;1.20;;
61460;SDS011;47325;50.506;4.472;2022-09-09T16:55:22;3.60;;;1.20;;
61460;SDS011;47325;50.506;4.472;2022-09-09T17:01:06;5.20;;;1.00;;
61460;SDS011;47325;50.506;4.472;2022-09-09T17:06:51;4.10;;;1.00;;
61460;SDS011;47325;50.506;4.472;2022-09-09T17:12:35;2.60;;;1.00;;
61460;SDS011;47325;50.506;4.472;2022-09-09T17:18:26;3.70;;;1.10;;
61460;SDS011;47325;50.506;4.472;2022-09-09T17:24:10;2.20;;;0.90;;
61460;SDS011;47325;50.506;4.472;2022-09-09T17:29:55;4.40;;;1.30;;
61460;SDS011;47325;50.506;4.472;2022-09-09T17:35:39;2.80;;;0.90;;
61460;SDS011;47325;50.506;4.472;2022-09-09T17:41:27;4.20;;;1.10;;
61460;SDS011;47325;50.506;4.472;2022-09-09T17:47:12;2.70;;;1.00;;
61460;SDS011;47325;50.506;4.472;2022-09-09T17:52:55;3.20;;;1.20;;
61460;SDS011;47325;50.506;4.472;2022-09-09T17:58:39;4.00;;;1.10;;
61460;SDS011;47325;50.506;4.472;2022-09-09T18:04:23;2.80;;;1.00;;
61460;SDS011;47325;50.506;4.472;2022-09-09T18:10:07;3.90;;;1.00;;
61460;SDS011;47325;50.506;4.472;2022-09-09T18:15:50;4.80;;;1.20;;
61460;SDS011;47325;50.506;4.472;2022-09-09T18:21:34;2.20;;;0.90;;
61460;SDS011;47325;50.506;4.472;2022-09-09T18:27:18;2.90;;;1.00;;
61460;SDS011;47325;50.506;4.472;2022-09-09T18:33:01;3.50;;;1.00;;
61460;SDS011;47325;50.506;4.472;2022-09-09T18:38:44;7.70;;;1.90;;
61460;SDS011;47325;50.506;4.472;2022-09-09T18:44:28;4.40;;;1.50;;
61460;SDS011;47325;50.506;4.472;2022-09-09T18:50:12;4.80;;;1.30;;
61460;SDS011;47325;50.506;4.472;2022-09-09T18:56:00;4.20;;;1.20;;
61460;SDS011;47325;50.506;4.472;2022-09-09T19:01:44;3.10;;;1.20;;
61460;SDS011;47325;50.506;4.472;2022-09-09T19:07:28;3.70;;;1.20;;
61460;SDS011;47325;50.506;4.472;2022-09-09T19:13:11;4.50;;;1.20;;
61460;SDS011;47325;50.506;4.472;2022-09-09T19:18:55;4.00;;;1.00;;
61460;SDS011;47325;50.506;4.472;2022-09-09T19:24:40;4.00;;;1.20;;
61460;SDS011;47325;50.506;4.472;2022-09-09T19:30:24;4.10;;;1.20;;
61460;SDS011;47325;50.506;4.472;2022-09-09T19:36:07;4.10;;;1.30;;
61460;SDS011;47325;50.506;4.472;2022-09-09T19:41:52;3.40;;;0.90;;
61460;SDS011;47325;50.506;4.472;2022-09-09T19:47:35;3.40;;;0.70;;
61460;SDS011;47325;50.506;4.472;2022-09-09T19:53:19;5.00;;;1.00;;
61460;SDS011;47325;50.506;4.472;2022-09-09T19:59:03;3.60;;;0.90;;
61460;SDS011;47325;50.506;4.472;2022-09-09T20:04:48;4.30;;;1.00;;
61460;SDS011;47325;50.506;4.472;2022-09-09T20:10:31;4.00;;;0.90;;
61460;SDS011;47325;50.506;4.472;2022-09-09T20:16:15;2.70;;;0.90;;
61460;SDS011;47325;50.506;4.472;2022-09-09T20:22:00;2.90;;;0.90;;
61460;SDS011;47325;50.506;4.472;2022-09-09T20:27:43;2.10;;;0.80;;
61460;SDS011;47325;50.506;4.472;2022-09-09T20:33:26;2.00;;;0.70;;
61460;SDS011;47325;50.506;4.472;2022-09-09T20:39:11;2.60;;;0.80;;
61460;SDS011;47325;50.506;4.472;2022-09-09T20:44:55;1.50;;;0.60;;
61460;SDS011;47325;50.506;4.472;2022-09-09T20:50:39;2.60;;;0.80;;
61460;SDS011;47325;50.506;4.472;2022-09-09T20:56:23;3.50;;;0.80;;
61460;SDS011;47325;50.506;4.472;2022-09-09T21:02:08;2.00;;;0.70;;
61460;SDS011;47325;50.506;4.472;2022-09-09T21:07:51;2.30;;;0.90;;
61460;SDS011;47325;50.506;4.472;2022-09-09T21:13:37;2.80;;;0.90;;
61460;SDS011;47325;50.506;4.472;2022-09-09T21:19:20;2.80;;;0.70;;
61460;SDS011;47325;50.506;4.472;2022-09-09T21:25:04;1.60;;;0.70;;
61460;SDS011;47325;50.506;4.472;2022-09-09T21:30:49;3.10;;;0.70;;
61460;SDS011;47325;50.506;4.472;2022-09-09T21:36:33;3.20;;;0.80;;
61460;SDS011;47325;50.506;4.472;2022-09-09T21:42:17;3.90;;;0.80;;
61460;SDS011;47325;50.506;4.472;2022-09-09T21:48:00;3.40;;;0.80;;
61460;SDS011;47325;50.506;4.472;2022-09-09T21:53:43;2.90;;;0.80;;
61460;SDS011;47325;50.506;4.472;2022-09-09T21:59:28;2.90;;;0.90;;
61460;SDS011;47325;50.506;4.472;2022-09-09T22:05:12;3.10;;;0.90;;
61460;SDS011;47325;50.506;4.472;2022-09-09T22:10:55;3.10;;;0.90;;
61460;SDS011;47325;50.506;4.472;2022-09-09T22:16:38;2.50;;;0.80;;
61460;SDS011;47325;50.506;4.472;2022-09-09T22:22:21;4.00;;;0.90;;
61460;SDS011;47325;50.506;4.472;2022-09-09T22:28:04;2.80;;;0.80;;
61460;SDS011;47325;50.506;4.472;2022-09-09T22:33:49;3.90;;;0.80;;
61460;SDS011;47325;50.506;4.472;2022-09-09T22:39:33;2.40;;;0.90;;
61460;SDS011;47325;50.506;4.472;2022-09-09T22:45:17;2.40;;;0.80;;
61460;SDS011;47325;50.506;4.472;2022-09-09T22:51:03;2.60;;;0.90;;
61460;SDS011;47325;50.506;4.472;2022-09-09T22:56:47;4.20;;;0.80;;
61460;SDS011;47325;50.506;4.472;2022-09-09T23:02:30;2.50;;;0.90;;
61460;SDS011;47325;50.506;4.472;2022-09-09T23:08:20;3.20;;;0.80;;
61460;SDS011;47325;50.506;4.472;2022-09-09T23:14:04;2.50;;;0.80;;
61460;SDS011;47325;50.506;4.472;2022-09-09T23:19:47;2.00;;;0.80;;
61460;SDS011;47325;50.506;4.472;2022-09-09T23:25:31;3.20;;;0.90;;
61460;SDS011;47325;50.506;4.472;2022-09-09T23:31:17;1.70;;;0.80;;
61460;SDS011;47325;50.506;4.472;2022-09-09T23:37:02;3.40;;;1.00;;
61460;SDS011;47325;50.506;4.472;2022-09-09T23:42:45;2.60;;;0.90;;
61460;SDS011;47325;50.506;4.472;2022-09-09T23:48:28;3.00;;;0.90;;
61460;SDS011;47325;50.506;4.472;2022-09-09T23:54:11;3.80;;;1.00;;
61460;SDS011;47325;50.506;4.472;2022-09-09T23:59:54;2.40;;;0.90;;
